createdAt,value
2019-01-04T09:09:08.928Z,18.33
2019-01-04T09:11:36.922Z,17.70
2019-01-04T09:14:04.929Z,17.03
2019-01-04T09:16:33.155Z,16.67
2019-01-04T09:19:01.029Z,22.00
2019-01-04T09:21:28.903Z,15.33
2019-01-04T09:23:56.848Z,17.33
2019-01-04T09:26:24.805Z,18.20
2019-01-04T09:28:52.810Z,21.30
2019-01-04T09:31:20.790Z,19.00
2019-01-04T09:33:48.939Z,22.07
2019-01-04T09:36:17.430Z,19.27
2019-01-04T09:38:49.708Z,18.90
2019-01-04T09:41:42.910Z,20.60
2019-01-04T09:44:11.031Z,19.23
2019-01-04T09:46:39.272Z,19.30
2019-01-04T09:49:08.228Z,18.97
2019-01-04T09:51:36.171Z,29.53
2019-01-04T09:54:04.130Z,19.53
2019-01-04T09:56:32.099Z,21.50
2019-01-04T09:59:00.307Z,19.97
2019-01-04T10:01:28.263Z,19.80
2019-01-04T10:03:56.193Z,19.40
2019-01-04T10:06:24.371Z,18.60
2019-01-04T10:08:52.391Z,21.07
2019-01-04T10:11:20.308Z,19.60
2019-01-04T10:13:48.212Z,21.80
2019-01-04T10:16:16.199Z,26.70
2019-01-04T10:18:44.378Z,19.83
2019-01-04T10:21:12.313Z,19.53
2019-01-04T10:23:40.291Z,21.80
2019-01-04T10:26:08.292Z,27.50
2019-01-04T10:28:36.488Z,22.60
2019-01-04T10:34:25.301Z,23.20
2019-01-04T10:36:54.360Z,19.33
2019-01-04T10:39:23.772Z,22.37
2019-01-04T10:41:51.844Z,23.53
2019-01-04T10:44:19.849Z,22.57
2019-01-04T10:46:47.719Z,22.53
2019-01-04T10:49:16.055Z,22.77
2019-01-04T10:51:44.230Z,19.50
2019-01-04T10:54:12.259Z,24.57
2019-01-04T10:56:40.492Z,22.87
2019-01-04T10:59:08.553Z,22.60
2019-01-04T11:01:36.770Z,22.93
2019-01-04T11:04:04.756Z,23.90
2019-01-04T11:06:32.999Z,21.13
2019-01-04T11:09:01.148Z,24.50
2019-01-04T11:11:32.186Z,21.30
2019-01-04T11:14:00.137Z,24.87
2019-01-04T11:16:28.169Z,24.40
2019-01-04T11:18:56.611Z,25.53
2019-01-04T11:21:24.495Z,22.90
2019-01-04T11:24:15.794Z,27.97
2019-01-04T11:26:55.618Z,27.43
2019-01-04T11:29:27.524Z,28.20
2019-01-04T11:32:20.616Z,23.10
2019-01-04T11:35:20.795Z,23.37
2019-01-04T11:37:53.765Z,23.20
2019-01-04T11:40:39.124Z,22.63
2019-01-04T11:43:13.324Z,20.83
2019-01-04T11:45:56.579Z,22.50
2019-01-04T11:48:36.634Z,22.40
2019-01-04T11:51:35.549Z,25.53
2019-01-04T11:54:06.147Z,21.00
2019-01-04T11:56:34.389Z,23.23
2019-01-04T11:59:02.235Z,24.20
2019-01-04T12:01:30.154Z,20.63
2019-01-04T12:03:58.740Z,21.67
2019-01-04T12:06:27.306Z,21.03
2019-01-04T12:08:55.294Z,20.80
2019-01-04T12:11:23.130Z,26.70
2019-01-04T12:13:51.029Z,22.93
2019-01-04T12:16:18.950Z,26.43
2019-01-04T12:18:46.813Z,20.40
2019-01-04T12:21:15.090Z,24.33
2019-01-04T12:23:43.001Z,22.87
2019-01-04T12:26:10.998Z,24.27
2019-01-04T12:28:38.979Z,25.70
2019-01-04T12:31:07.034Z,25.73
2019-01-04T12:33:37.086Z,21.63
2019-01-04T12:36:05.035Z,24.77
2019-01-04T12:38:32.875Z,23.60
2019-01-04T12:41:00.746Z,23.30
2019-01-04T12:43:28.711Z,19.10
2019-01-04T12:45:56.587Z,19.20
2019-01-04T12:48:24.532Z,20.60
2019-01-04T12:50:52.724Z,21.70
2019-01-04T12:53:20.572Z,24.00
2019-01-04T12:55:48.887Z,24.13
2019-01-04T12:58:16.904Z,27.73
2019-01-04T13:00:44.791Z,24.70
2019-01-04T13:03:12.678Z,23.17
2019-01-04T13:05:40.525Z,29.07
2019-01-04T13:08:08.374Z,20.17
2019-01-04T13:10:36.220Z,18.80
2019-01-04T13:13:03.929Z,20.73
2019-01-04T13:15:31.782Z,20.90
2019-01-04T13:17:59.681Z,20.73
2019-01-04T13:20:27.537Z,21.00
2019-01-04T13:22:55.379Z,23.20
2019-01-04T13:25:23.308Z,20.83
2019-01-04T13:27:51.185Z,20.60
2019-01-04T13:30:19.111Z,20.30
2019-01-04T13:32:47.131Z,23.37
2019-01-04T13:35:15.055Z,21.90
2019-01-04T13:37:42.948Z,19.87
2019-01-04T13:40:10.872Z,19.00
2019-01-04T13:42:38.718Z,19.43
2019-01-04T13:45:07.013Z,21.90
2019-01-04T13:47:34.859Z,23.00
2019-01-04T13:50:02.771Z,22.67
2019-01-04T13:52:30.588Z,20.33
2019-01-04T13:54:58.408Z,25.30
2019-01-04T13:57:26.279Z,20.90
2019-01-04T13:59:54.129Z,20.43
2019-01-04T14:02:22.029Z,21.00
2019-01-04T14:04:49.906Z,21.30
2019-01-04T14:07:17.756Z,21.53
2019-01-04T14:09:45.826Z,17.53
2019-01-04T14:12:13.720Z,19.93
2019-01-04T14:14:41.605Z,20.73
2019-01-04T14:17:09.474Z,24.10
2019-01-04T14:19:37.341Z,18.47
2019-01-04T14:22:05.259Z,20.40
2019-01-04T14:24:33.211Z,22.50
2019-01-04T14:27:01.094Z,19.23
2019-01-04T14:29:29.068Z,22.43
2019-01-04T14:31:56.939Z,22.97
2019-01-04T14:34:24.871Z,22.10
2019-01-04T14:36:52.833Z,19.37
2019-01-04T14:39:20.752Z,21.00
2019-01-04T14:41:48.661Z,20.93
2019-01-04T14:44:16.642Z,21.10
2019-01-04T14:46:44.539Z,26.33
2019-01-04T14:49:12.370Z,20.70
2019-01-04T14:51:41.463Z,23.27
2019-01-04T14:54:09.367Z,21.67
2019-01-04T14:56:37.304Z,20.73
2019-01-04T14:59:05.400Z,22.03
2019-01-04T15:01:33.359Z,19.17
2019-01-04T15:04:01.316Z,23.00
2019-01-04T15:06:29.351Z,22.73
2019-01-04T15:08:57.324Z,24.13
2019-01-04T15:11:25.295Z,19.77
2019-01-04T15:13:53.288Z,21.40
2019-01-04T15:16:21.181Z,22.27
2019-01-04T15:18:49.088Z,19.90
2019-01-04T15:21:17.097Z,22.37
2019-01-04T15:23:45.330Z,19.03
2019-01-04T15:26:13.327Z,18.00
2019-01-04T15:28:41.323Z,23.33
2019-01-04T15:31:09.388Z,19.37
2019-01-04T15:33:37.555Z,21.20
2019-01-04T15:36:05.511Z,19.70
2019-01-04T15:38:36.321Z,19.10
2019-01-04T15:41:03.014Z,22.97
2019-01-04T15:43:30.942Z,19.30
2019-01-04T15:45:58.850Z,22.57
2019-01-04T15:48:26.971Z,19.60
2019-01-04T15:50:54.847Z,23.27
2019-01-04T15:53:22.770Z,21.00
2019-01-04T15:55:50.871Z,25.70
2019-01-04T15:58:21.699Z,24.20
2019-01-04T16:00:49.562Z,25.97
2019-01-04T16:03:19.621Z,22.43
2019-01-04T16:05:47.559Z,26.90
2019-01-04T16:08:15.479Z,25.63
2019-01-04T16:10:43.373Z,27.63
2019-01-04T16:13:11.252Z,27.07
2019-01-04T16:15:39.172Z,25.73
2019-01-04T16:18:07.230Z,25.47
2019-01-04T16:20:35.226Z,24.53
2019-01-04T16:23:04.275Z,24.87
2019-01-04T16:25:32.164Z,28.20
2019-01-04T16:28:00.133Z,25.77
2019-01-04T16:30:28.312Z,29.83
2019-01-04T16:32:58.370Z,22.57
2019-01-04T16:35:26.440Z,26.13
2019-01-04T16:37:55.484Z,26.47
2019-01-04T16:40:23.648Z,26.03
2019-01-04T16:46:01.318Z,27.60
2019-01-04T16:48:29.419Z,28.00
2019-01-04T16:50:57.546Z,27.57
2019-01-04T16:53:25.554Z,25.73
2019-01-04T16:55:53.710Z,27.37
2019-01-04T16:58:21.804Z,25.47
2019-01-04T17:00:49.764Z,32.87
2019-01-04T17:03:17.768Z,30.93
2019-01-04T17:05:45.819Z,27.23
2019-01-04T17:08:13.738Z,27.80
2019-01-04T17:10:41.637Z,29.30
2019-01-04T17:13:09.582Z,27.93
2019-01-04T17:15:37.597Z,27.43
2019-01-04T17:18:05.589Z,31.20
2019-01-04T17:20:33.584Z,30.63
2019-01-04T17:23:01.609Z,32.23
2019-01-04T17:25:29.557Z,30.03
2019-01-04T17:27:57.520Z,29.10
2019-01-04T17:30:25.734Z,30.67
2019-01-04T17:32:53.656Z,31.27
2019-01-04T17:35:21.657Z,29.17
2019-01-04T17:37:49.598Z,33.20
2019-01-04T17:40:17.529Z,31.70
2019-01-04T17:42:45.476Z,28.70
2019-01-04T17:45:13.475Z,32.13
2019-01-04T17:47:41.673Z,35.80
2019-01-04T17:50:09.636Z,30.13
2019-01-04T17:52:37.549Z,32.13
2019-01-04T17:55:06.351Z,29.87
2019-01-04T17:57:34.310Z,34.70
2019-01-04T18:00:02.570Z,32.47
2019-01-04T18:02:30.673Z,31.77
2019-01-04T18:04:58.591Z,31.90
2019-01-04T18:07:27.298Z,36.93
2019-01-04T18:13:04.531Z,37.10
2019-01-04T18:15:32.513Z,36.67
2019-01-04T18:18:00.496Z,37.33
2019-01-04T18:20:28.402Z,39.57
2019-01-04T18:22:56.639Z,35.00
2019-01-04T18:25:24.719Z,41.37
2019-01-04T18:27:52.660Z,39.03
2019-01-04T18:30:20.674Z,37.23
2019-01-04T18:32:48.608Z,35.73
2019-01-04T18:35:16.960Z,35.10
2019-01-04T18:37:44.827Z,38.20
2019-01-04T18:40:12.707Z,34.97
2019-01-04T18:42:40.660Z,39.63
2019-01-04T18:45:09.042Z,39.73
2019-01-04T18:47:39.447Z,41.10
2019-01-04T18:50:07.896Z,37.93
2019-01-04T18:52:35.799Z,41.93
2019-01-04T18:55:04.343Z,37.37
2019-01-04T18:57:32.439Z,40.00
2019-01-04T19:00:00.513Z,37.07
2019-01-04T19:02:28.586Z,40.47
2019-01-04T19:04:56.643Z,40.07
2019-01-04T19:07:25.778Z,42.57
2019-01-04T19:12:40.965Z,38.67
2019-01-04T19:15:09.512Z,37.90
2019-01-04T19:17:38.989Z,38.87
2019-01-04T19:20:07.118Z,38.17
2019-01-04T19:22:35.293Z,44.10
2019-01-04T19:25:03.670Z,35.60
2019-01-04T19:27:31.763Z,39.20
2019-01-04T19:29:59.948Z,33.27
2019-01-04T19:32:47.359Z,37.57
